createdAt,value
2023-01-19T00:04:52.351Z,0
2023-01-19T00:17:02.451Z,0
2023-01-19T00:22:21.704Z,0
2023-01-19T00:27:38.885Z,0
2023-01-19T00:38:14.259Z,0
2023-01-19T00:43:31.521Z,0
2023-01-19T00:48:49.889Z,0
2023-01-19T00:54:07.541Z,0
2023-01-19T00:59:25.353Z,0
2023-01-19T01:04:52.515Z,0
2023-01-19T01:10:10.013Z,0
2023-01-19T01:15:27.367Z,0
2023-01-19T01:20:44.850Z,0
2023-01-19T01:26:02.252Z,0
2023-01-19T01:31:19.747Z,0
2023-01-19T01:36:37.111Z,0
2023-01-19T01:41:55.951Z,0
2023-01-19T01:52:36.440Z,0
2023-01-19T01:57:54.044Z,0
2023-01-19T02:03:11.554Z,0
2023-01-19T02:08:29.374Z,0
2023-01-19T02:13:47.041Z,0
2023-01-19T02:19:05.052Z,0
2023-01-19T02:29:46.206Z,0
2023-01-19T02:35:03.859Z,0
2023-01-19T02:40:21.206Z,0
2023-01-19T02:50:59.002Z,0
2023-01-19T02:56:16.621Z,0
2023-01-19T03:06:54.487Z,0
2023-01-19T03:12:21.107Z,0
2023-01-19T03:17:38.560Z,0
2023-01-19T03:23:01.255Z,0
2023-01-19T03:28:19.357Z,0
2023-01-19T03:33:36.892Z,0
2023-01-19T03:38:54.385Z,0
2023-01-19T03:44:11.916Z,0
2023-01-19T03:49:33.910Z,0
2023-01-19T03:54:51.556Z,0
2023-01-19T04:00:09.077Z,0
2023-01-19T04:05:26.551Z,0
2023-01-19T04:10:43.957Z,0
2023-01-19T04:16:01.479Z,0
2023-01-19T04:21:18.939Z,0
2023-01-19T04:26:36.496Z,0
2023-01-19T04:31:54.320Z,0
2023-01-19T04:37:12.600Z,0
2023-01-19T04:42:30.389Z,0
2023-01-19T04:47:50.575Z,0
2023-01-19T04:53:08.074Z,0
2023-01-19T04:58:25.831Z,0
2023-01-19T05:03:46.118Z,0
2023-01-19T05:09:03.788Z,0
2023-01-19T05:14:21.833Z,0
2023-01-19T05:19:39.173Z,0
2023-01-19T05:24:56.967Z,0
2023-01-19T05:30:17.104Z,0
2023-01-19T05:35:36.621Z,0
2023-01-19T05:46:19.664Z,0
2023-01-19T05:51:37.390Z,0
2023-01-19T05:56:54.698Z,0
2023-01-19T06:02:12.382Z,0
2023-01-19T06:07:29.861Z,0
2023-01-19T06:12:47.727Z,0
2023-01-19T06:18:05.863Z,0
2023-01-19T06:23:23.154Z,0
2023-01-19T06:28:40.665Z,0
2023-01-19T06:33:58.080Z,0
2023-01-19T06:39:21.299Z,0
2023-01-19T06:44:38.762Z,0
2023-01-19T06:49:56.500Z,0
2023-01-19T06:55:13.977Z,0
2023-01-19T07:00:31.643Z,0
2023-01-19T07:05:48.895Z,0
2023-01-19T07:11:22.571Z,0
2023-01-19T07:16:47.880Z,0
2023-01-19T07:22:05.481Z,0.5
2023-01-19T07:27:28.489Z,0.9
2023-01-19T07:32:45.663Z,17.5
2023-01-19T07:38:02.687Z,31.7
2023-01-19T07:43:19.447Z,50
2023-01-19T07:48:36.517Z,73.3
2023-01-19T07:53:53.549Z,83.3
2023-01-19T07:59:13.527Z,113.3
2023-01-19T08:04:30.845Z,137.1
2023-01-19T08:09:47.675Z,169.6
2023-01-19T08:20:21.680Z,249.6
2023-01-19T08:25:38.637Z,267.1
2023-01-19T08:30:55.833Z,320
2023-01-19T08:36:12.841Z,320
2023-01-19T08:41:30.227Z,434.2
2023-01-19T08:46:47.372Z,557.1
2023-01-19T08:52:04.519Z,459.2
2023-01-19T08:57:21.620Z,552.5
2023-01-19T09:02:38.684Z,672.5
2023-01-19T09:07:56.241Z,864.6
2023-01-19T09:13:34.572Z,865.8
2023-01-19T09:18:52.296Z,1035.8
2023-01-19T09:24:09.429Z,919.2
2023-01-19T09:29:30.887Z,977.1
2023-01-19T09:34:48.118Z,1207.5
2023-01-19T09:40:05.328Z,1528.3
2023-01-19T09:45:26.006Z,1088.7
2023-01-19T09:50:46.712Z,1365.4
2023-01-19T09:56:03.982Z,989.6
2023-01-19T10:01:21.234Z,1432.1
2023-01-19T10:06:38.499Z,1292.9
2023-01-19T10:11:55.671Z,1621.7
2023-01-19T10:17:12.706Z,2501.7
2023-01-19T10:22:30.235Z,2445.8
2023-01-19T10:27:48.413Z,2072.1
2023-01-19T10:33:05.736Z,1744.2
2023-01-19T10:38:22.959Z,2896.3
2023-01-19T10:43:40.164Z,2973.8
2023-01-19T10:48:57.547Z,3960.8
2023-01-19T10:54:14.942Z,3056.3
2023-01-19T10:59:34.553Z,5982.1
2023-01-19T11:04:52.096Z,3820.8
2023-01-19T11:10:09.067Z,3400.4
2023-01-19T11:15:26.505Z,6538.3
2023-01-19T11:20:52.865Z,2033.7
2023-01-19T11:26:09.985Z,3112.1
2023-01-19T11:31:27.049Z,2331.7
2023-01-19T11:36:44.486Z,4244.2
2023-01-19T11:42:02.041Z,5573.8
2023-01-19T11:47:19.238Z,5573.3
2023-01-19T11:52:36.365Z,7351.7
2023-01-19T11:57:54.544Z,5163.8
2023-01-19T12:03:12.617Z,6941.3
2023-01-19T12:08:29.694Z,4774.6
2023-01-19T12:13:46.797Z,3692.5
2023-01-19T12:19:08.259Z,3074.6
2023-01-19T12:24:25.197Z,4450
2023-01-19T12:29:42.798Z,3495
2023-01-19T12:35:00.335Z,2987.5
2023-01-19T12:40:18.083Z,2773.3
2023-01-19T12:45:35.309Z,4697.5
2023-01-19T12:50:52.706Z,4281.7
2023-01-19T12:56:13.052Z,3903.3
2023-01-19T13:01:30.313Z,3526.7
2023-01-19T13:06:47.903Z,4530
2023-01-19T13:12:05.119Z,3747.9
2023-01-19T13:17:22.348Z,5030
2023-01-19T13:22:39.779Z,6962.9
2023-01-19T13:27:57.711Z,6512.9
2023-01-19T13:33:15.368Z,5830.4
2023-01-19T13:38:32.395Z,4486.2
2023-01-19T13:43:49.291Z,3134.2
2023-01-19T13:49:06.349Z,3740.4
2023-01-19T13:54:23.675Z,3501.3
2023-01-19T14:05:00.634Z,2619.2
2023-01-19T14:10:17.767Z,3470.8
2023-01-19T14:15:35.283Z,2532.9
2023-01-19T14:20:52.287Z,2420.4
2023-01-19T14:26:09.367Z,1767.5
2023-01-19T14:31:26.297Z,1956.7
2023-01-19T14:42:08.997Z,2293.3
2023-01-19T14:47:26.604Z,1980.4
2023-01-19T14:52:43.695Z,3163.3
2023-01-19T14:58:00.705Z,2389.6
2023-01-19T15:03:18.315Z,3263.3
2023-01-19T15:08:35.913Z,2815.8
2023-01-19T15:13:52.698Z,1684.6
2023-01-19T15:19:11.913Z,1277.5
2023-01-19T15:24:29.241Z,1135
2023-01-19T15:29:46.277Z,984.6
2023-01-19T15:35:03.258Z,842.9
2023-01-19T15:40:20.313Z,717.9
2023-01-19T15:45:37.657Z,577.5
2023-01-19T15:56:18.413Z,329.2
2023-01-19T16:01:35.782Z,223.7
2023-01-19T16:06:52.978Z,122.5
2023-01-19T16:12:10.349Z,71.7
2023-01-19T16:17:27.383Z,42.5
2023-01-19T16:22:44.599Z,22.5
2023-01-19T16:33:26.821Z,0
2023-01-19T16:38:44.540Z,0
2023-01-19T16:44:02.084Z,0
2023-01-19T16:49:19.852Z,0
2023-01-19T16:54:39.333Z,0
2023-01-19T16:59:56.796Z,0
2023-01-19T17:05:14.171Z,0
2023-01-19T17:10:31.502Z,0
2023-01-19T17:15:49.017Z,0
2023-01-19T17:21:09.972Z,0
2023-01-19T17:26:27.422Z,0
2023-01-19T17:31:47.931Z,0
2023-01-19T17:37:05.989Z,0
2023-01-19T17:42:23.523Z,0
2023-01-19T17:47:40.888Z,0
2023-01-19T17:52:58.362Z,0
2023-01-19T17:58:19.226Z,0
2023-01-19T18:03:36.731Z,0
2023-01-19T18:09:15.232Z,0
2023-01-19T18:14:33.191Z,0
2023-01-19T18:19:54.796Z,0
2023-01-19T18:25:12.229Z,0
2023-01-19T18:30:29.583Z,0
2023-01-19T18:35:50.003Z,0
2023-01-19T18:41:10.852Z,0
2023-01-19T18:46:28.720Z,0
2023-01-19T18:51:46.426Z,0
2023-01-19T18:57:04.211Z,0
2023-01-19T19:02:24.819Z,0
2023-01-19T19:07:42.348Z,0
2023-01-19T19:12:59.904Z,0
2023-01-19T19:18:18.239Z,0
2023-01-19T19:23:35.639Z,0
2023-01-19T19:28:56.203Z,0
2023-01-19T19:34:13.819Z,0
2023-01-19T19:39:31.116Z,0
2023-01-19T19:44:49.144Z,0
2023-01-19T19:50:16.919Z,0
2023-01-19T19:55:35.132Z,0
2023-01-19T20:00:52.555Z,0
2023-01-19T20:06:10.223Z,0
2023-01-19T20:11:27.640Z,0
2023-01-19T20:16:45.001Z,0
2023-01-19T20:22:07.984Z,0
2023-01-19T20:27:25.503Z,0
2023-01-19T20:32:45.899Z,0
2023-01-19T20:38:26.555Z,0
2023-01-19T20:43:44.998Z,0
2023-01-19T20:49:02.513Z,0
2023-01-19T20:54:19.926Z,0
2023-01-19T20:59:37.274Z,0
2023-01-19T21:04:54.936Z,0
2023-01-19T21:10:12.432Z,0
2023-01-19T21:15:29.819Z,0
2023-01-19T21:20:47.248Z,0
2023-01-19T21:26:04.624Z,0
2023-01-19T21:31:31.290Z,0
2023-01-19T21:37:10.098Z,0
2023-01-19T21:42:29.278Z,0
2023-01-19T21:47:46.665Z,0
2023-01-19T21:53:04.069Z,0
2023-01-19T21:58:21.280Z,0
2023-01-19T22:03:39.005Z,0
2023-01-19T22:08:56.544Z,0
2023-01-19T22:14:14.183Z,0
2023-01-19T22:19:31.834Z,0
2023-01-19T22:24:49.647Z,0
2023-01-19T22:30:10.319Z,0
2023-01-19T22:35:27.808Z,0
2023-01-19T22:40:45.375Z,0
2023-01-19T22:46:04.142Z,0
2023-01-19T22:51:21.534Z,0
2023-01-19T22:56:39.449Z,0
2023-01-19T23:02:14.067Z,0
2023-01-19T23:07:31.886Z,0
2023-01-19T23:12:49.380Z,0
2023-01-19T23:18:06.584Z,0
2023-01-19T23:23:24.086Z,0
2023-01-19T23:34:01.673Z,0
2023-01-19T23:39:19.077Z,0
2023-01-19T23:44:38.191Z,0
2023-01-19T23:49:55.700Z,0
2023-01-19T23:55:16.337Z,0
